Time;durP1;ratioP1;P1;durP2;ratioP2;P2;SDS_P1;SDS_P2;PMS_P1;PMS_P2;Temp;Humidity;BMP_temperature;BMP_pressure;BME280_temperature;BME280_humidity;BME280_pressure;Samples;Min_cycle;Max_cycle;Signal;HPM_P1;HPM_P2
2023/10/02 00:03:33;;;;;;;2.28;2.17;;;17.20;99.90;;;;;;5105507;27;20051;-85
2023/10/02 00:05:59;;;;;;;2.35;2.25;;;17.40;99.90;;;;;;5092875;27;20051;-86
2023/10/02 00:08:35;;;;;;;2.20;2.10;;;17.20;99.90;;;;;;5100660;27;20071;-86
2023/10/02 00:11:41;;;;;;;2.22;2.13;;;17.50;99.90;;;;;;5100854;27;20051;-85
2023/10/02 00:14:19;;;;;;;2.13;2.03;;;17.20;99.90;;;;;;5098248;27;20475;-84
2023/10/02 00:17:03;;;;;;;2.15;2.05;;;17.40;99.90;;;;;;5104535;27;20461;-85
2023/10/02 00:19:52;;;;;;;2.28;2.17;;;17.30;99.90;;;;;;5102810;27;20043;-85
2023/10/02 00:22:36;;;;;;;2.15;2.05;;;17.20;99.90;;;;;;5094140;27;20660;-86
2023/10/02 00:25:19;;;;;;;2.13;2.03;;;17.30;99.90;;;;;;5080975;28;20068;-86
2023/10/02 00:27:50;;;;;;;2.20;2.10;;;17.30;99.90;;;;;;5105006;27;20096;-84
2023/10/02 00:30:20;;;;;;;2.13;2.03;;;17.20;99.90;;;;;;5096718;27;20040;-85
2023/10/02 00:32:47;;;;;;;2.15;2.05;;;17.40;99.90;;;;;;5095207;27;20052;-85
2023/10/02 00:35:13;;;;;;;2.00;1.90;;;17.20;99.90;;;;;;5097598;27;20120;-85
2023/10/02 00:37:51;;;;;;;2.10;2.00;;;17.50;99.90;;;;;;5106323;27;20473;-86
2023/10/02 00:40:21;;;;;;;2.10;2.00;;;17.50;99.90;;;;;;5096067;27;20040;-84
2023/10/02 00:45:58;;;;;;;2.10;2.00;;;17.50;99.90;;;;;;5097076;27;20054;-84
2023/10/02 00:48:28;;;;;;;2.10;2.00;;;17.50;99.90;;;;;;5096589;27;20124;-84
2023/10/02 00:50:59;;;;;;;2.00;1.90;;;17.60;99.90;;;;;;5096422;27;20059;-86
2023/10/02 00:53:39;;;;;;;2.00;1.90;;;17.30;99.90;;;;;;5078594;27;20453;-84
2023/10/02 00:56:24;;;;;;;1.80;1.70;;;17.70;99.90;;;;;;5101385;27;20533;-84
2023/10/02 00:59:00;;;;;;;2.08;1.88;;;17.60;99.90;;;;;;5105715;27;20489;-84
2023/10/02 01:01:31;;;;;;;1.73;1.63;;;17.70;99.90;;;;;;5105507;27;20051;-85
2023/10/02 01:04:10;;;;;;;1.70;1.60;;;17.50;99.90;;;;;;5101858;27;20032;-85
2023/10/02 01:09:29;;;;;;;1.50;1.40;;;17.60;99.90;;;;;;5095278;27;20054;-84
2023/10/02 01:11:58;;;;;;;1.60;1.50;;;17.70;99.90;;;;;;5078651;28;20393;-84
2023/10/02 01:14:47;;;;;;;1.50;1.40;;;17.90;99.90;;;;;;5098102;27;20047;-84
2023/10/02 01:17:14;;;;;;;1.30;1.30;;;17.80;99.90;;;;;;5094179;27;20066;-85
2023/10/02 01:19:57;;;;;;;1.25;1.25;;;17.80;99.90;;;;;;5083408;27;20043;-84
2023/10/02 01:22:37;;;;;;;1.20;1.20;;;17.90;99.90;;;;;;5102549;27;20043;-85
2023/10/02 01:25:16;;;;;;;1.20;1.20;;;17.70;99.90;;;;;;5097041;27;20044;-85
2023/10/02 01:27:50;;;;;;;1.20;1.20;;;17.70;99.90;;;;;;5097749;27;20113;-85
2023/10/02 01:30:21;;;;;;;1.15;1.15;;;17.80;99.90;;;;;;5093774;27;20412;-84
2023/10/02 01:35:38;;;;;;;1.13;1.13;;;17.70;99.90;;;;;;5102049;27;20445;-83
2023/10/02 01:38:12;;;;;;;1.08;1.08;;;17.50;99.90;;;;;;5107157;27;20118;-85
2023/10/02 01:40:49;;;;;;;1.40;1.30;;;17.60;99.90;;;;;;5096195;27;20397;-85
2023/10/02 01:43:16;;;;;;;1.17;1.17;;;17.60;99.90;;;;;;5099702;27;20047;-85
2023/10/02 01:45:43;;;;;;;1.08;1.08;;;17.50;99.90;;;;;;5095334;27;20047;-84
2023/10/02 01:48:13;;;;;;;1.02;1.02;;;17.70;99.90;;;;;;5099883;27;20180;-85
2023/10/02 01:50:45;;;;;;;1.17;1.17;;;17.60;99.90;;;;;;5095049;27;20072;-85
2023/10/02 01:53:32;;;;;;;1.15;1.15;;;17.50;99.90;;;;;;5099806;27;20048;-85
2023/10/02 01:56:10;;;;;;;1.13;1.13;;;17.60;99.90;;;;;;5099337;27;20466;-84
2023/10/02 01:58:39;;;;;;;1.17;1.17;;;17.50;99.90;;;;;;5093951;27;20075;-84
2023/10/02 02:01:06;;;;;;;1.13;1.13;;;17.50;99.90;;;;;;5094896;27;20053;-85
2023/10/02 02:03:33;;;;;;;1.15;1.15;;;17.30;99.90;;;;;;5101179;27;20048;-85
2023/10/02 02:06:08;;;;;;;1.13;1.13;;;17.50;99.90;;;;;;5097415;27;20036;-85
2023/10/02 02:08:35;;;;;;;1.10;1.10;;;17.30;99.90;;;;;;5096169;27;20058;-85
2023/10/02 02:11:16;;;;;;;1.15;1.15;;;17.40;99.90;;;;;;5093338;27;20040;-85
2023/10/02 02:13:51;;;;;;;1.20;1.20;;;17.40;99.90;;;;;;5097381;27;20400;-85
2023/10/02 02:16:38;;;;;;;1.10;1.10;;;17.30;99.90;;;;;;5079764;28;20051;-86
2023/10/02 02:19:05;;;;;;;1.20;1.20;;;17.20;99.90;;;;;;5095011;27;20043;-86
2023/10/02 02:21:32;;;;;;;1.10;1.10;;;17.00;99.90;;;;;;5097269;27;20050;-85
2023/10/02 02:24:07;;;;;;;1.20;1.20;;;17.00;99.90;;;;;;5079484;27;20477;-86
2023/10/02 02:26:33;;;;;;;1.30;1.30;;;17.00;99.90;;;;;;5097328;28;20119;-86
2023/10/02 02:29:01;;;;;;;1.30;1.30;;;16.90;99.90;;;;;;5095418;27;20047;-86
2023/10/02 02:31:39;;;;;;;1.40;1.35;;;16.90;99.90;;;;;;5076139;28;20085;-85
2023/10/02 02:34:15;;;;;;;1.52;1.42;;;16.70;99.90;;;;;;5096396;28;20050;-86
2023/10/02 02:36:47;;;;;;;1.60;1.50;;;16.90;99.90;;;;;;5076624;27;20100;-85
2023/10/02 02:39:17;;;;;;;1.60;1.50;;;16.80;99.90;;;;;;5097725;27;20048;-86
2023/10/02 02:42:08;;;;;;;1.60;1.50;;;16.80;99.90;;;;;;5092605;28;20575;-85
2023/10/02 02:44:43;;;;;;;1.60;1.50;;;16.80;99.90;;;;;;5080982;28;20031;-86
2023/10/02 02:47:09;;;;;;;1.70;1.60;;;17.00;99.90;;;;;;5090148;28;20055;-85
2023/10/02 02:49:50;;;;;;;1.70;1.60;;;17.00;99.90;;;;;;5102521;28;20066;-84
2023/10/02 02:52:27;;;;;;;1.70;1.60;;;16.80;99.90;;;;;;5098760;28;20048;-85
2023/10/02 02:55:04;;;;;;;1.65;1.55;;;17.10;99.90;;;;;;5094469;28;20116;-86
2023/10/02 02:57:34;;;;;;;1.70;1.60;;;17.00;99.90;;;;;;5102189;28;20040;-85
2023/10/02 03:00:29;;;;;;;1.65;1.55;;;16.90;99.90;;;;;;5095296;28;20100;-85
2023/10/02 03:02:57;;;;;;;1.60;1.50;;;16.80;99.90;;;;;;5084598;28;20050;-84
2023/10/02 03:05:25;;;;;;;1.67;1.58;;;16.90;99.90;;;;;;5089620;28;20074;-84
2023/10/02 03:07:56;;;;;;;1.60;1.50;;;17.10;99.90;;;;;;5094717;28;20039;-85
2023/10/02 03:10:24;;;;;;;1.58;1.48;;;17.00;99.90;;;;;;5097289;28;20079;-84
2023/10/02 03:12:51;;;;;;;1.60;1.50;;;16.80;99.90;;;;;;5098331;28;20705;-85
2023/10/02 03:15:19;;;;;;;1.52;1.42;;;16.80;99.90;;;;;;5095025;28;20042;-85
2023/10/02 03:17:47;;;;;;;1.60;1.50;;;16.80;99.90;;;;;;5098949;28;20044;-85
2023/10/02 03:20:25;;;;;;;1.50;1.40;;;16.70;99.90;;;;;;5094159;28;20507;-85
2023/10/02 03:22:55;;;;;;;1.50;1.40;;;16.60;99.90;;;;;;5100454;28;20055;-84
2023/10/02 03:27:55;;;;;;;1.60;1.50;;;16.80;99.90;;;;;;5095327;28;20051;-86
2023/10/02 03:30:43;;;;;;;1.50;1.40;;;16.40;99.90;;;;;;5093799;28;20396;-86
2023/10/02 03:33:22;;;;;;;1.60;1.50;;;16.70;99.90;;;;;;5094589;28;20060;-85
2023/10/02 03:36:08;;;;;;;1.63;1.52;;;16.60;99.90;;;;;;5100916;28;20074;-86
2023/10/02 03:38:48;;;;;;;1.50;1.40;;;16.60;99.90;;;;;;5103682;27;20040;-85
2023/10/02 03:41:14;;;;;;;1.48;1.40;;;16.60;99.90;;;;;;5083248;28;20147;-85
2023/10/02 03:43:49;;;;;;;1.48;1.38;;;16.70;99.90;;;;;;5091021;27;20593;-86
2023/10/02 03:46:35;;;;;;;1.48;1.40;;;16.40;99.90;;;;;;5105224;27;20597;-85
2023/10/02 03:49:07;;;;;;;1.30;1.30;;;16.60;99.90;;;;;;5116165;27;20122;-85
2023/10/02 03:51:36;;;;;;;1.30;1.30;;;16.30;99.90;;;;;;5100874;27;20062;-85
2023/10/02 03:54:29;;;;;;;1.33;1.33;;;16.30;99.90;;;;;;5085571;27;20040;-87
2023/10/02 03:56:51;;;;;;;2.35;2.15;;;16.20;99.90;;;;;;5098053;27;20059;-86
2023/10/02 03:59:25;;;;;;;1.30;1.30;;;16.40;99.90;;;;;;5102231;27;20083;-87
2023/10/02 04:01:51;;;;;;;1.20;1.20;;;16.50;99.90;;;;;;5101344;27;20047;-85
2023/10/02 04:04:21;;;;;;;1.30;1.30;;;16.20;99.90;;;;;;5101119;27;20039;-85
2023/10/02 04:06:56;;;;;;;1.48;1.38;;;16.10;99.90;;;;;;5085585;28;20048;-85
2023/10/02 04:09:23;;;;;;;1.35;1.33;;;16.30;99.90;;;;;;5102352;27;20100;-85
2023/10/02 04:11:56;;;;;;;1.35;1.30;;;16.30;99.90;;;;;;5098338;27;20176;-86
2023/10/02 04:14:32;;;;;;;1.30;1.30;;;16.20;99.90;;;;;;5115483;27;20051;-85
2023/10/02 04:19:52;;;;;;;1.55;1.45;;;16.30;99.90;;;;;;5102904;27;20108;-87
2023/10/02 04:22:28;;;;;;;1.58;1.48;;;16.20;99.90;;;;;;5092933;27;20051;-86
2023/10/02 04:24:58;;;;;;;1.58;1.48;;;16.40;99.90;;;;;;5109736;27;20050;-86
2023/10/02 04:28:00;;;;;;;1.58;1.48;;;16.30;99.90;;;;;;5106295;27;20287;-85
2023/10/02 04:32:59;;;;;;;1.50;1.40;;;16.10;99.90;;;;;;5110080;27;20047;-87
2023/10/02 04:38:14;;;;;;;1.75;1.65;;;16.30;99.90;;;;;;5103590;27;20611;-86
2023/10/02 04:40:49;;;;;;;1.70;1.60;;;16.10;99.90;;;;;;5093055;27;20081;-86
2023/10/02 04:43:28;;;;;;;1.75;1.65;;;16.40;99.90;;;;;;5111369;27;20054;-86
2023/10/02 04:46:02;;;;;;;1.70;1.60;;;16.10;99.90;;;;;;5098035;27;20047;-86
2023/10/02 04:48:42;;;;;;;1.77;1.67;;;16.30;99.90;;;;;;5105694;27;20049;-86
2023/10/02 04:51:11;;;;;;;1.70;1.60;;;16.40;99.90;;;;;;5100212;27;20586;-85
2023/10/02 04:53:42;;;;;;;1.58;1.48;;;16.10;99.90;;;;;;5090066;28;20055;-85
2023/10/02 04:56:21;;;;;;;1.60;1.50;;;16.20;99.90;;;;;;5102322;27;20090;-86
2023/10/02 04:58:49;;;;;;;1.83;1.73;;;16.60;99.90;;;;;;5098569;27;20051;-87
2023/10/02 05:01:34;;;;;;;1.73;1.63;;;16.30;99.90;;;;;;5092610;28;20681;-87
2023/10/02 05:04:03;;;;;;;1.73;1.63;;;16.50;99.90;;;;;;5099113;27;20064;-86
2023/10/02 05:06:43;;;;;;;1.70;1.60;;;16.30;99.90;;;;;;5103677;27;20043;-86
2023/10/02 05:11:52;;;;;;;1.92;1.83;;;16.00;99.90;;;;;;5107017;27;20470;-86
2023/10/02 05:14:26;;;;;;;1.95;1.85;;;16.40;99.90;;;;;;5084150;28;20070;-86
2023/10/02 05:16:53;;;;;;;2.05;1.95;;;16.10;99.90;;;;;;5097788;27;20046;-86
2023/10/02 05:19:46;;;;;;;1.90;1.80;;;16.20;99.90;;;;;;5074811;27;20073;-87
2023/10/02 05:22:04;;;;;;;1.98;1.88;;;16.10;99.90;;;;;;5102556;27;20112;-87
2023/10/02 05:24:32;;;;;;;2.03;1.92;;;16.10;99.90;;;;;;5104950;27;20385;-86
2023/10/02 05:26:59;;;;;;;2.03;1.92;;;16.10;99.90;;;;;;5103770;27;20039;-87
2023/10/02 05:29:41;;;;;;;2.00;1.90;;;16.20;99.90;;;;;;5098578;27;20644;-87
2023/10/02 05:32:19;;;;;;;2.13;2.03;;;15.90;99.90;;;;;;5100377;27;20111;-85
2023/10/02 05:34:58;;;;;;;2.00;1.90;;;16.20;99.90;;;;;;5097375;27;20040;-88
2023/10/02 05:37:31;;;;;;;2.22;2.13;;;16.20;99.90;;;;;;5085396;27;20254;-86
2023/10/02 05:43:09;;;;;;;2.10;2.00;;;16.00;99.90;;;;;;5103464;27;20086;-86
2023/10/02 05:48:14;;;;;;;1.95;1.85;;;16.30;99.90;;;;;;5108468;27;20564;-87
2023/10/02 05:50:52;;;;;;;2.05;1.95;;;16.30;99.90;;;;;;5096921;27;20044;-87
2023/10/02 05:53:19;;;;;;;2.15;2.05;;;16.20;99.90;;;;;;5085004;27;20047;-85
2023/10/02 05:56:05;;;;;;;1.83;1.73;;;16.30;99.90;;;;;;5101279;27;20047;-86
2023/10/02 05:58:36;;;;;;;1.85;1.75;;;16.30;99.90;;;;;;5105825;27;20098;-84
2023/10/02 06:01:12;;;;;;;1.88;1.77;;;16.40;99.90;;;;;;5084357;28;20127;-85
2023/10/02 06:03:37;;;;;;;1.75;1.65;;;16.10;99.90;;;;;;5093884;27;20067;-87
2023/10/02 06:06:21;;;;;;;1.80;1.70;;;16.50;99.90;;;;;;5108734;27;20401;-87
2023/10/02 06:08:49;;;;;;;1.88;1.77;;;16.20;99.90;;;;;;5110275;27;20039;-85
2023/10/02 06:11:36;;;;;;;1.67;1.58;;;16.40;99.90;;;;;;5100139;27;20048;-87
2023/10/02 06:14:12;;;;;;;2.03;1.92;;;16.50;99.90;;;;;;5092790;27;20051;-87
2023/10/02 06:16:42;;;;;;;1.75;1.65;;;16.30;99.90;;;;;;5105566;27;20124;-88
2023/10/02 06:19:14;;;;;;;1.77;1.67;;;16.70;99.90;;;;;;5104499;27;21897;-85
2023/10/02 06:21:47;;;;;;;1.63;1.52;;;16.40;99.90;;;;;;5102885;27;20051;-88
2023/10/02 06:24:19;;;;;;;1.83;1.73;;;16.60;99.90;;;;;;5084372;28;20052;-88
2023/10/02 06:26:55;;;;;;;1.73;1.63;;;16.60;99.90;;;;;;5076949;28;20070;-87
2023/10/02 06:29:24;;;;;;;1.90;1.80;;;16.70;99.90;;;;;;5104316;27;20040;-88
2023/10/02 06:32:03;;;;;;;1.60;1.50;;;16.80;99.90;;;;;;5099573;27;20101;-89
2023/10/02 06:34:39;;;;;;;11.95;6.82;;;16.90;99.90;;;;;;5100870;27;20050;-86
2023/10/02 06:37:12;;;;;;;1.48;1.40;;;16.90;99.90;;;;;;5104908;27;20052;-86
2023/10/02 06:39:42;;;;;;;1.50;1.43;;;17.00;99.90;;;;;;5101454;27;20595;-88
2023/10/02 06:42:10;;;;;;;1.35;1.33;;;16.80;99.90;;;;;;5099348;27;20056;-89
2023/10/02 06:47:50;;;;;;;1.33;1.33;;;17.20;99.90;;;;;;5071883;28;20399;-87
2023/10/02 06:50:31;;;;;;;1.33;1.30;;;17.10;99.90;;;;;;5109728;28;20046;-86
2023/10/02 06:53:00;;;;;;;1.35;1.33;;;17.40;99.90;;;;;;5102221;28;20048;-85
2023/10/02 06:55:26;;;;;;;1.42;1.38;;;17.30;99.90;;;;;;5088218;28;20773;-87
2023/10/02 06:57:53;;;;;;;1.35;1.33;;;17.40;99.90;;;;;;5103993;28;20047;-86
2023/10/02 07:00:25;;;;;;;1.42;1.38;;;17.70;99.90;;;;;;5097738;28;20122;-90
2023/10/02 07:02:56;;;;;;;1.35;1.30;;;17.60;99.90;;;;;;5110114;28;20487;-86
2023/10/02 07:05:34;;;;;;;1.40;1.35;;;17.60;99.90;;;;;;5101749;28;20050;-89
2023/10/02 07:08:17;;;;;;;1.45;1.40;;;17.60;99.90;;;;;;5100338;28;20094;-84
2023/10/02 07:10:47;;;;;;;1.35;1.33;;;17.80;99.90;;;;;;5102745;28;20472;-84
2023/10/02 07:13:22;;;;;;;1.65;1.55;;;17.80;99.90;;;;;;5105122;27;20059;-86
2023/10/02 07:15:55;;;;;;;1.50;1.42;;;17.80;99.90;;;;;;5103485;27;20135;-86
2023/10/02 07:18:35;;;;;;;1.45;1.38;;;18.00;99.90;;;;;;5095847;28;20480;-87
2023/10/02 07:21:13;;;;;;;1.30;1.30;;;18.20;99.90;;;;;;5094099;28;20622;-87
2023/10/02 07:23:43;;;;;;;1.23;1.23;;;18.20;99.90;;;;;;5110042;27;20047;-86
2023/10/02 07:26:19;;;;;;;1.13;1.13;;;18.20;99.90;;;;;;5103544;27;20413;-87
2023/10/02 07:28:53;;;;;;;1.15;1.15;;;18.50;99.90;;;;;;5120005;27;20054;-86
2023/10/02 07:31:20;;;;;;;1.15;1.15;;;18.60;99.90;;;;;;5099699;27;20047;-85
2023/10/02 07:33:45;;;;;;;1.02;1.02;;;18.50;99.90;;;;;;5115744;27;20059;-86
2023/10/02 07:36:14;;;;;;;1.08;1.08;;;18.80;99.90;;;;;;5097798;27;20040;-83
2023/10/02 07:38:46;;;;;;;1.02;1.02;;;18.90;99.90;;;;;;5111519;27;20465;-82
2023/10/02 07:41:23;;;;;;;0.95;0.95;;;18.80;99.90;;;;;;5103525;27;20047;-87
2023/10/02 07:43:52;;;;;;;0.95;0.95;;;18.80;99.90;;;;;;5087746;28;20040;-87
2023/10/02 07:46:21;;;;;;;0.90;0.90;;;19.00;99.90;;;;;;5114507;27;20075;-86
2023/10/02 07:48:57;;;;;;;0.95;0.95;;;19.10;99.90;;;;;;5083836;27;20955;-90
2023/10/02 07:51:30;;;;;;;0.90;0.90;;;19.20;99.90;;;;;;5100462;27;20051;-92
2023/10/02 07:54:02;;;;;;;1.00;1.00;;;19.30;99.90;;;;;;5091012;28;20032;-85
2023/10/02 07:56:35;;;;;;;0.90;0.90;;;19.40;99.90;;;;;;5117519;27;20316;-94
2023/10/02 07:59:01;;;;;;;1.08;1.08;;;19.20;99.90;;;;;;5110083;27;20104;-88
2023/10/02 08:01:28;;;;;;;1.10;1.10;;;19.20;99.90;;;;;;5076730;28;20040;-87
2023/10/02 08:03:55;;;;;;;1.05;1.05;;;19.10;99.90;;;;;;5088324;27;20046;-88
2023/10/02 08:11:50;;;;;;;1.05;1.05;;;19.20;99.90;;;;;;5109110;27;20076;-86
2023/10/02 08:14:40;;;;;;;1.15;1.15;;;19.30;99.90;;;;;;5103908;27;20039;-85
2023/10/02 08:17:18;;;;;;;1.02;1.02;;;19.30;99.90;;;;;;5108777;27;20043;-86
2023/10/02 08:19:54;;;;;;;1.05;1.05;;;19.30;99.90;;;;;;5109179;27;20054;-85
2023/10/02 08:22:20;;;;;;;1.05;1.05;;;19.30;99.90;;;;;;5093649;27;20071;-86
2023/10/02 08:24:46;;;;;;;0.95;0.95;;;19.40;99.90;;;;;;5110914;27;20043;-87
2023/10/02 08:27:14;;;;;;;0.93;0.93;;;19.60;99.90;;;;;;5117028;27;20039;-89
2023/10/02 08:29:41;;;;;;;1.02;1.02;;;19.70;99.90;;;;;;5102222;27;20036;-90
2023/10/02 08:32:10;;;;;;;0.95;0.95;;;19.80;99.90;;;;;;5087882;27;20071;-92
2023/10/02 08:34:36;;;;;;;0.82;0.82;;;20.00;99.90;;;;;;5089698;28;20047;-87
2023/10/02 08:37:05;;;;;;;0.77;0.77;;;20.10;99.90;;;;;;5112913;27;20579;-88
2023/10/02 08:39:38;;;;;;;0.82;0.82;;;20.20;99.90;;;;;;5103351;27;20054;-89
2023/10/02 08:42:09;;;;;;;0.80;0.80;;;20.30;99.90;;;;;;5102292;28;20054;-92
2023/10/02 08:44:42;;;;;;;0.75;0.75;;;20.30;99.90;;;;;;5097851;27;20038;-89
2023/10/02 08:47:24;;;;;;;0.93;0.93;;;20.40;99.90;;;;;;5119923;27;20086;-92
2023/10/02 08:50:03;;;;;;;0.77;0.77;;;20.60;99.90;;;;;;5088402;28;20143;-93
2023/10/02 08:52:51;;;;;;;0.82;0.82;;;20.60;99.90;;;;;;5079364;27;20543;-93
2023/10/02 08:55:34;;;;;;;0.90;0.90;;;20.60;99.90;;;;;;5093593;27;20043;-91
2023/10/02 08:58:16;;;;;;;0.68;0.68;;;20.70;99.90;;;;;;5086786;28;20050;-88
2023/10/02 09:03:42;;;;;;;0.60;0.60;;;20.60;99.90;;;;;;5103879;27;20049;-90
2023/10/02 09:06:25;;;;;;;0.60;0.60;;;20.70;99.90;;;;;;5080692;28;20052;-89
2023/10/02 09:12:16;;;;;;;1.48;1.40;;;20.80;99.90;;;;;;5007474;28;20167;-91
2023/10/02 09:14:42;;;;;;;0.60;0.60;;;21.00;99.90;;;;;;5061512;28;20056;-89
2023/10/02 09:17:43;;;;;;;0.60;0.60;;;21.10;99.90;;;;;;5087930;28;20055;-94
2023/10/02 09:20:36;;;;;;;0.60;0.60;;;21.20;99.90;;;;;;5006357;28;20155;-92
2023/10/02 09:23:08;;;;;;;0.55;0.55;;;21.20;99.90;;;;;;5031606;28;20124;-87
2023/10/02 09:25:37;;;;;;;0.50;0.50;;;21.30;99.90;;;;;;5059568;28;20066;-85
2023/10/02 09:28:13;;;;;;;0.60;0.60;;;21.40;99.90;;;;;;5087877;28;20091;-90
2023/10/02 09:30:41;;;;;;;0.70;0.70;;;21.30;99.90;;;;;;5070060;28;20119;-87
2023/10/02 09:33:10;;;;;;;0.60;0.60;;;21.30;99.90;;;;;;5086708;28;20138;-86
2023/10/02 09:35:40;;;;;;;0.50;0.50;;;21.40;99.90;;;;;;5101943;28;20048;-88
2023/10/02 09:38:16;;;;;;;0.50;0.50;;;21.50;99.90;;;;;;5071660;28;20150;-87
2023/10/02 09:41:08;;;;;;;0.60;0.60;;;21.40;99.90;;;;;;5084739;28;20051;-86
2023/10/02 09:43:53;;;;;;;0.60;0.60;;;21.20;99.90;;;;;;5080180;28;20062;-89
2023/10/02 09:46:35;;;;;;;0.60;0.60;;;21.20;99.90;;;;;;5071246;28;20073;-89
2023/10/02 09:49:09;;;;;;;1.10;1.05;;;21.30;99.90;;;;;;5070545;28;20139;-86
2023/10/02 09:52:07;;;;;;;0.50;0.50;;;21.30;99.90;;;;;;5099994;27;20044;-89
2023/10/02 09:54:40;;;;;;;0.50;0.50;;;21.30;99.90;;;;;;5098860;27;20443;-93
2023/10/02 09:57:33;;;;;;;0.50;0.50;;;21.80;99.90;;;;;;5097072;27;20050;-88
2023/10/02 10:03:33;;;;;;;0.50;0.50;;;22.50;99.90;;;;;;5107328;27;20504;-88
2023/10/02 10:06:16;;;;;;;0.50;0.50;;;22.50;99.90;;;;;;5090806;28;20043;-88
2023/10/02 10:11:44;;;;;;;0.57;0.57;;;22.60;99.90;;;;;;5103337;27;20066;-89
2023/10/02 10:14:37;;;;;;;0.50;0.50;;;22.60;99.90;;;;;;5098616;27;20135;-91
2023/10/02 10:17:12;;;;;;;0.60;0.60;;;22.40;99.90;;;;;;5096623;28;20745;-87
2023/10/02 10:20:09;;;;;;;0.50;0.50;;;22.40;99.90;;;;;;5092278;27;20051;-87
2023/10/02 10:22:50;;;;;;;0.50;0.50;;;22.40;99.90;;;;;;5068670;28;20066;-91
2023/10/02 10:25:35;;;;;;;0.50;0.50;;;22.20;99.90;;;;;;5080896;28;20058;-90
2023/10/02 10:28:05;;;;;;;0.50;0.50;;;22.10;99.90;;;;;;5090840;28;20052;-86
2023/10/02 10:30:39;;;;;;;0.50;0.50;;;22.30;99.90;;;;;;5107557;27;20051;-85
2023/10/02 10:35:38;;;;;;;0.52;0.52;;;22.40;99.90;;;;;;5104958;27;20051;-88
2023/10/02 10:38:22;;;;;;;0.50;0.50;;;22.90;99.90;;;;;;5109179;27;20047;-89
2023/10/02 10:40:51;;;;;;;0.50;0.50;;;22.90;99.90;;;;;;5109317;27;20070;-87
2023/10/02 10:43:17;;;;;;;0.50;0.50;;;22.90;99.90;;;;;;5110107;27;20071;-86
2023/10/02 10:45:48;;;;;;;0.50;0.50;;;23.00;99.90;;;;;;5107553;28;20043;-90
2023/10/02 10:48:23;;;;;;;0.43;0.43;;;22.80;99.90;;;;;;5083131;28;20058;-87
2023/10/02 10:50:59;;;;;;;0.40;0.40;;;23.00;99.90;;;;;;5099624;28;20057;-87
2023/10/02 10:53:29;;;;;;;0.40;0.40;;;23.20;99.90;;;;;;5100662;28;20051;-83
2023/10/02 10:56:16;;;;;;;0.50;0.50;;;23.10;99.90;;;;;;5110739;28;20051;-88
2023/10/02 10:58:43;;;;;;;0.50;0.50;;;23.20;99.90;;;;;;5093919;28;20047;-86
2023/10/02 11:01:16;;;;;;;0.50;0.50;;;23.20;99.90;;;;;;5102688;28;20047;-86
2023/10/02 11:03:43;;;;;;;0.40;0.40;;;23.40;99.90;;;;;;5106182;28;20050;-88
2023/10/02 11:06:10;;;;;;;0.73;0.73;;;23.50;99.90;;;;;;5101886;28;20470;-86
2023/10/02 11:08:40;;;;;;;0.85;0.60;;;23.40;99.90;;;;;;5103922;28;20057;-88
2023/10/02 11:11:18;;;;;;;0.40;0.40;;;23.60;99.90;;;;;;5105327;28;20046;-95
2023/10/02 11:16:34;;;;;;;0.45;0.45;;;23.30;99.90;;;;;;5103960;28;20618;-87
2023/10/02 11:19:21;;;;;;;0.50;0.50;;;23.40;99.90;;;;;;5097878;28;20039;-87
2023/10/02 11:24:49;;;;;;;0.60;0.60;;;23.50;99.90;;;;;;5093635;28;20051;-88
2023/10/02 11:27:15;;;;;;;0.50;0.50;;;23.60;99.90;;;;;;5075930;28;20052;-90
2023/10/02 11:29:45;;;;;;;0.50;0.50;;;23.90;99.90;;;;;;5096049;28;20055;-90
2023/10/02 11:32:46;;;;;;;0.52;0.52;;;23.80;99.90;;;;;;5105945;28;20044;-90
2023/10/02 11:35:05;;;;;;;0.50;0.50;;;23.40;99.90;;;;;;5107413;28;20799;-87
2023/10/02 11:37:32;;;;;;;0.30;0.30;;;23.60;99.90;;;;;;5108915;28;20073;-95
2023/10/02 11:39:58;;;;;;;0.50;0.50;;;23.40;99.90;;;;;;5108122;28;20456;-87
2023/10/02 11:42:25;;;;;;;0.50;0.50;;;23.30;99.90;;;;;;5098509;28;20039;-87
2023/10/02 11:44:50;;;;;;;0.50;0.50;;;23.40;99.90;;;;;;5102482;28;20124;-88
2023/10/02 11:47:16;;;;;;;0.40;0.40;;;23.40;99.90;;;;;;5086882;28;20501;-90
2023/10/02 11:49:42;;;;;;;0.95;0.95;;;23.40;99.90;;;;;;5089742;28;20075;-88
2023/10/02 11:52:08;;;;;;;0.63;0.52;;;23.30;99.90;;;;;;5078805;28;20058;-93
2023/10/02 11:54:42;;;;;;;0.50;0.50;;;23.30;99.90;;;;;;5108228;28;20117;-94
2023/10/02 11:57:12;;;;;;;0.63;0.63;;;23.20;99.90;;;;;;5079182;28;20425;-89
2023/10/02 11:59:47;;;;;;;0.50;0.50;;;23.10;99.90;;;;;;5079640;27;20048;-91
2023/10/02 12:02:16;;;;;;;0.50;0.50;;;23.10;99.90;;;;;;5106063;27;20055;-95
2023/10/02 12:04:46;;;;;;;0.47;0.47;;;22.90;99.90;;;;;;5083119;28;20119;-95
2023/10/02 12:07:15;;;;;;;0.63;0.63;;;22.80;99.90;;;;;;5103930;27;20126;-88
2023/10/02 12:09:41;;;;;;;0.47;0.47;;;22.80;99.90;;;;;;5098336;27;20048;-89
2023/10/02 12:12:07;;;;;;;0.55;0.55;;;22.80;99.90;;;;;;5103385;27;20054;-93
2023/10/02 12:14:33;;;;;;;0.57;0.57;;;22.80;99.90;;;;;;5093127;28;20076;-86
2023/10/02 12:16:58;;;;;;;0.68;0.68;;;23.00;99.90;;;;;;5109057;27;20099;-86
2023/10/02 12:19:36;;;;;;;0.57;0.57;;;23.10;99.90;;;;;;5105940;27;20051;-85
2023/10/02 12:22:06;;;;;;;0.57;0.57;;;23.00;99.90;;;;;;5107495;27;20044;-87
2023/10/02 12:24:36;;;;;;;0.63;0.63;;;23.00;99.90;;;;;;5114844;27;20051;-86
2023/10/02 12:27:10;;;;;;;0.47;0.47;;;23.10;99.90;;;;;;5086990;28;20039;-87
2023/10/02 12:29:36;;;;;;;0.65;0.65;;;23.40;99.90;;;;;;5101572;27;20052;-88
2023/10/02 12:32:03;;;;;;;0.50;0.50;;;23.50;99.90;;;;;;5106118;27;20056;-87
2023/10/02 12:34:29;;;;;;;0.52;0.52;;;23.70;99.90;;;;;;5105212;27;20087;-85
2023/10/02 12:36:55;;;;;;;0.52;0.52;;;23.80;99.90;;;;;;5096100;27;20178;-85
2023/10/02 12:39:22;;;;;;;0.43;0.43;;;24.10;99.90;;;;;;5098579;27;20052;-87
2023/10/02 12:41:48;;;;;;;0.30;0.30;;;24.40;99.90;;;;;;5091988;27;20426;-85
2023/10/02 12:44:16;;;;;;;0.90;0.90;;;24.40;99.90;;;;;;5099169;27;20047;-87
2023/10/02 12:46:50;;;;;;;0.30;0.30;;;24.70;99.90;;;;;;5083972;28;20050;-91
2023/10/02 12:49:18;;;;;;;1.00;1.00;;;24.70;99.90;;;;;;5098273;27;20171;-94
2023/10/02 12:51:44;;;;;;;0.63;0.63;;;24.70;99.90;;;;;;5099498;27;20044;-88
2023/10/02 12:54:11;;;;;;;0.30;0.30;;;24.60;99.90;;;;;;5093223;27;20079;-87
2023/10/02 12:56:39;;;;;;;0.35;0.35;;;24.90;99.90;;;;;;5101930;27;20645;-95
2023/10/02 12:59:11;;;;;;;0.38;0.38;;;24.80;99.90;;;;;;5084022;27;20517;-86
2023/10/02 13:01:37;;;;;;;0.50;0.50;;;24.90;99.90;;;;;;5096056;27;20132;-83
2023/10/02 13:04:03;;;;;;;0.35;0.35;;;24.70;99.90;;;;;;5107088;27;20507;-86
2023/10/02 13:06:32;;;;;;;0.30;0.30;;;24.50;99.90;;;;;;5111134;27;20050;-89
2023/10/02 13:09:09;;;;;;;0.60;0.60;;;24.30;99.90;;;;;;5099451;27;20453;-87
2023/10/02 13:11:39;;;;;;;0.30;0.30;;;24.30;99.90;;;;;;5107222;27;20169;-85
2023/10/02 13:14:06;;;;;;;0.38;0.38;;;24.20;99.90;;;;;;5108779;27;20126;-86
2023/10/02 13:16:32;;;;;;;0.40;0.40;;;24.20;99.90;;;;;;5100572;27;20914;-86
2023/10/02 13:18:58;;;;;;;0.35;0.35;;;24.10;99.90;;;;;;5108126;27;20032;-86
2023/10/02 13:21:24;;;;;;;1.15;1.15;;;24.20;99.90;;;;;;5068310;28;20071;-87
2023/10/02 13:23:51;;;;;;;0.30;0.30;;;24.50;99.90;;;;;;5088408;28;20404;-89
2023/10/02 13:26:17;;;;;;;0.35;0.35;;;24.70;99.90;;;;;;5086002;28;20047;-86
2023/10/02 13:28:48;;;;;;;0.30;0.30;;;24.90;99.90;;;;;;5087164;28;20047;-86
2023/10/02 13:31:16;;;;;;;0.32;0.32;;;25.10;99.90;;;;;;5079005;28;20047;-85
2023/10/02 13:33:51;;;;;;;0.40;0.40;;;25.20;99.90;;;;;;5083690;28;20496;-89
2023/10/02 13:36:22;;;;;;;0.30;0.30;;;25.00;99.90;;;;;;5077866;28;20047;-87
2023/10/02 13:38:51;;;;;;;0.38;0.38;;;25.00;99.90;;;;;;5086830;28;20039;-83
2023/10/02 13:41:18;;;;;;;0.30;0.30;;;25.00;99.90;;;;;;5085439;28;20051;-82
2023/10/02 13:43:45;;;;;;;0.30;0.30;;;24.90;99.90;;;;;;5104672;28;20065;-86
2023/10/02 13:46:14;;;;;;;0.30;0.30;;;24.80;99.90;;;;;;5084240;28;20083;-84
2023/10/02 13:48:41;;;;;;;0.30;0.30;;;24.60;99.90;;;;;;5085056;28;20059;-86
2023/10/02 13:51:07;;;;;;;0.30;0.30;;;24.60;99.90;;;;;;5069547;27;20051;-85
2023/10/02 13:53:34;;;;;;;0.30;0.30;;;24.40;99.90;;;;;;5096493;28;20138;-86
2023/10/02 13:56:09;;;;;;;0.35;0.35;;;24.60;99.90;;;;;;5092874;28;21493;-86
2023/10/02 13:58:42;;;;;;;0.30;0.30;;;24.60;99.90;;;;;;5077872;28;20218;-85
2023/10/02 14:01:08;;;;;;;0.40;0.40;;;24.60;99.90;;;;;;5073568;28;20056;-87
2023/10/02 14:03:35;;;;;;;0.40;0.40;;;24.60;99.90;;;;;;5090966;27;20512;-86
2023/10/02 14:06:07;;;;;;;0.30;0.30;;;24.50;99.90;;;;;;5078838;28;20075;-85
2023/10/02 14:08:33;;;;;;;2.13;0.40;;;24.50;99.90;;;;;;5093937;28;20109;-89
2023/10/02 14:11:00;;;;;;;0.40;0.40;;;24.40;99.90;;;;;;5087820;28;20036;-87
2023/10/02 14:13:26;;;;;;;0.30;0.30;;;24.20;99.90;;;;;;5066402;27;20824;-89
2023/10/02 14:15:53;;;;;;;0.30;0.30;;;24.10;99.90;;;;;;5085293;28;20114;-85
2023/10/02 14:18:23;;;;;;;0.30;0.30;;;24.00;99.90;;;;;;5081626;28;20059;-87